sensor_id;sensor_type;location;lat;lon;timestamp;P1;durP1;ratioP1;P2;durP2;ratioP2
37791;SDS011;29527;55.766;37.570;2022-11-04T00:01:24;10.75;;;7.50;;
37791;SDS011;29527;55.766;37.570;2022-11-04T00:03:50;14.18;;;8.45;;
37791;SDS011;29527;55.766;37.570;2022-11-04T00:06:17;14.00;;;8.80;;
37791;SDS011;29527;55.766;37.570;2022-11-04T00:08:43;14.05;;;8.60;;
37791;SDS011;29527;55.766;37.570;2022-11-04T00:11:12;13.63;;;8.48;;
37791;SDS011;29527;55.766;37.570;2022-11-04T00:13:56;15.20;;;8.40;;
37791;SDS011;29527;55.766;37.570;2022-11-04T00:16:21;11.18;;;7.68;;
37791;SDS011;29527;55.766;37.570;2022-11-04T00:19:05;11.15;;;7.63;;
37791;SDS011;29527;55.766;37.570;2022-11-04T00:21:30;12.65;;;7.90;;
37791;SDS011;29527;55.766;37.570;2022-11-04T00:24:14;12.50;;;7.75;;
37791;SDS011;29527;55.766;37.570;2022-11-04T00:26:58;12.40;;;7.97;;
37791;SDS011;29527;55.766;37.570;2022-11-04T00:29:42;12.45;;;8.10;;
37791;SDS011;29527;55.766;37.570;2022-11-04T00:32:08;12.52;;;7.97;;
37791;SDS011;29527;55.766;37.570;2022-11-04T00:34:52;14.07;;;8.25;;
37791;SDS011;29527;55.766;37.570;2022-11-04T00:37:17;13.88;;;8.45;;
37791;SDS011;29527;55.766;37.570;2022-11-04T00:39:42;16.98;;;8.75;;
37791;SDS011;29527;55.766;37.570;2022-11-04T00:42:08;14.70;;;8.60;;
37791;SDS011;29527;55.766;37.570;2022-11-04T00:44:33;14.25;;;8.68;;
37791;SDS011;29527;55.766;37.570;2022-11-04T00:46:59;16.33;;;8.80;;
37791;SDS011;29527;55.766;37.570;2022-11-04T00:49:24;14.35;;;8.38;;
37791;SDS011;29527;55.766;37.570;2022-11-04T00:51:50;14.60;;;8.15;;
37791;SDS011;29527;55.766;37.570;2022-11-04T00:54:15;15.75;;;8.52;;
37791;SDS011;29527;55.766;37.570;2022-11-04T00:56:40;14.00;;;7.93;;
37791;SDS011;29527;55.766;37.570;2022-11-04T00:59:06;14.43;;;7.95;;
37791;SDS011;29527;55.766;37.570;2022-11-04T01:01:31;13.18;;;8.10;;
37791;SDS011;29527;55.766;37.570;2022-11-04T01:03:57;11.25;;;7.75;;
37791;SDS011;29527;55.766;37.570;2022-11-04T01:06:23;12.18;;;7.70;;
37791;SDS011;29527;55.766;37.570;2022-11-04T01:08:54;11.57;;;7.82;;
37791;SDS011;29527;55.766;37.570;2022-11-04T01:11:27;11.80;;;7.40;;
37791;SDS011;29527;55.766;37.570;2022-11-04T01:13:53;13.38;;;8.50;;
37791;SDS011;29527;55.766;37.570;2022-11-04T01:16:19;12.30;;;8.18;;
37791;SDS011;29527;55.766;37.570;2022-11-04T01:18:45;14.30;;;7.90;;
37791;SDS011;29527;55.766;37.570;2022-11-04T01:21:11;12.50;;;8.20;;
37791;SDS011;29527;55.766;37.570;2022-11-04T01:23:39;16.67;;;9.07;;
37791;SDS011;29527;55.766;37.570;2022-11-04T01:26:06;13.90;;;7.80;;
37791;SDS011;29527;55.766;37.570;2022-11-04T01:28:33;15.63;;;9.02;;
37791;SDS011;29527;55.766;37.570;2022-11-04T01:31:04;16.55;;;9.52;;
37791;SDS011;29527;55.766;37.570;2022-11-04T01:33:30;15.10;;;8.75;;
37791;SDS011;29527;55.766;37.570;2022-11-04T01:35:58;14.90;;;8.75;;
37791;SDS011;29527;55.766;37.570;2022-11-04T01:38:24;16.73;;;8.98;;
37791;SDS011;29527;55.766;37.570;2022-11-04T01:40:49;15.10;;;9.25;;
37791;SDS011;29527;55.766;37.570;2022-11-04T01:43:16;15.25;;;8.73;;
37791;SDS011;29527;55.766;37.570;2022-11-04T01:45:48;16.35;;;9.45;;
37791;SDS011;29527;55.766;37.570;2022-11-04T01:48:24;15.75;;;8.88;;
37791;SDS011;29527;55.766;37.570;2022-11-04T01:50:51;14.43;;;8.38;;
37791;SDS011;29527;55.766;37.570;2022-11-04T01:53:20;15.30;;;8.18;;
37791;SDS011;29527;55.766;37.570;2022-11-04T01:55:51;16.67;;;8.48;;
37791;SDS011;29527;55.766;37.570;2022-11-04T01:58:20;13.68;;;7.75;;
37791;SDS011;29527;55.766;37.570;2022-11-04T02:00:49;13.73;;;8.07;;
37791;SDS011;29527;55.766;37.570;2022-11-04T02:03:19;11.45;;;8.10;;
37791;SDS011;29527;55.766;37.570;2022-11-04T02:05:50;13.98;;;7.88;;
37791;SDS011;29527;55.766;37.570;2022-11-04T02:08:17;12.13;;;7.65;;
37791;SDS011;29527;55.766;37.570;2022-11-04T02:10:53;13.00;;;8.43;;
37791;SDS011;29527;55.766;37.570;2022-11-04T02:13:22;12.18;;;7.80;;
37791;SDS011;29527;55.766;37.570;2022-11-04T02:26:47;15.77;;;8.85;;
37791;SDS011;29527;55.766;37.570;2022-11-04T02:32:30;14.00;;;8.98;;
37791;SDS011;29527;55.766;37.570;2022-11-04T02:38:03;19.42;;;9.43;;
37791;SDS011;29527;55.766;37.570;2022-11-04T02:43:22;20.05;;;10.05;;
37791;SDS011;29527;55.766;37.570;2022-11-04T02:45:58;16.77;;;9.05;;
37791;SDS011;29527;55.766;37.570;2022-11-04T02:51:05;13.77;;;8.32;;
37791;SDS011;29527;55.766;37.570;2022-11-04T02:56:21;16.73;;;8.57;;
37791;SDS011;29527;55.766;37.570;2022-11-04T02:58:54;16.13;;;9.00;;
37791;SDS011;29527;55.766;37.570;2022-11-04T03:01:23;14.20;;;8.30;;
37791;SDS011;29527;55.766;37.570;2022-11-04T03:04:02;17.65;;;9.45;;
37791;SDS011;29527;55.766;37.570;2022-11-04T03:06:33;16.35;;;8.85;;
37791;SDS011;29527;55.766;37.570;2022-11-04T03:09:00;17.65;;;8.93;;
37791;SDS011;29527;55.766;37.570;2022-11-04T03:11:26;15.75;;;8.85;;
37791;SDS011;29527;55.766;37.570;2022-11-04T03:16:37;15.75;;;9.02;;
37791;SDS011;29527;55.766;37.570;2022-11-04T03:21:54;14.93;;;8.80;;
37791;SDS011;29527;55.766;37.570;2022-11-04T03:24:26;14.13;;;9.13;;
37791;SDS011;29527;55.766;37.570;2022-11-04T03:27:16;15.63;;;9.18;;
37791;SDS011;29527;55.766;37.570;2022-11-04T03:29:54;22.42;;;9.60;;
37791;SDS011;29527;55.766;37.570;2022-11-04T03:35:01;21.25;;;11.10;;
37791;SDS011;29527;55.766;37.570;2022-11-04T03:37:26;22.42;;;10.40;;
37791;SDS011;29527;55.766;37.570;2022-11-04T03:39:52;20.13;;;10.60;;
37791;SDS011;29527;55.766;37.570;2022-11-04T03:42:17;21.77;;;11.18;;
37791;SDS011;29527;55.766;37.570;2022-11-04T03:44:46;20.63;;;10.38;;
37791;SDS011;29527;55.766;37.570;2022-11-04T03:47:12;22.00;;;10.40;;
37791;SDS011;29527;55.766;37.570;2022-11-04T03:49:37;16.85;;;9.77;;
37791;SDS011;29527;55.766;37.570;2022-11-04T03:52:03;18.85;;;10.02;;
37791;SDS011;29527;55.766;37.570;2022-11-04T03:54:28;18.23;;;8.90;;
37791;SDS011;29527;55.766;37.570;2022-11-04T04:02:19;14.52;;;8.88;;
37791;SDS011;29527;55.766;37.570;2022-11-04T04:07:40;15.30;;;8.98;;
37791;SDS011;29527;55.766;37.570;2022-11-04T04:10:16;16.35;;;8.15;;
37791;SDS011;29527;55.766;37.570;2022-11-04T04:13:07;17.38;;;8.55;;
37791;SDS011;29527;55.766;37.570;2022-11-04T04:15:42;11.95;;;7.45;;
37791;SDS011;29527;55.766;37.570;2022-11-04T04:18:29;12.45;;;7.85;;
37791;SDS011;29527;55.766;37.570;2022-11-04T04:21:21;15.00;;;8.10;;
37791;SDS011;29527;55.766;37.570;2022-11-04T04:23:52;13.00;;;6.32;;
37791;SDS011;29527;55.766;37.570;2022-11-04T04:26:40;7.05;;;4.30;;
37791;SDS011;29527;55.766;37.570;2022-11-04T04:29:26;6.57;;;3.80;;
37791;SDS011;29527;55.766;37.570;2022-11-04T04:31:53;7.85;;;4.53;;
37791;SDS011;29527;55.766;37.570;2022-11-04T04:34:29;7.60;;;4.28;;
37791;SDS011;29527;55.766;37.570;2022-11-04T04:37:04;7.22;;;4.50;;
37791;SDS011;29527;55.766;37.570;2022-11-04T04:39:37;8.80;;;4.55;;
37791;SDS011;29527;55.766;37.570;2022-11-04T04:42:29;8.20;;;4.15;;
37791;SDS011;29527;55.766;37.570;2022-11-04T04:45:18;8.70;;;4.15;;
37791;SDS011;29527;55.766;37.570;2022-11-04T04:47:45;7.30;;;4.10;;
37791;SDS011;29527;55.766;37.570;2022-11-04T04:50:15;7.07;;;3.70;;
37791;SDS011;29527;55.766;37.570;2022-11-04T04:52:44;8.07;;;3.63;;
37791;SDS011;29527;55.766;37.570;2022-11-04T04:55:12;6.88;;;3.50;;
37791;SDS011;29527;55.766;37.570;2022-11-04T04:57:37;8.02;;;4.20;;
37791;SDS011;29527;55.766;37.570;2022-11-04T05:00:04;6.78;;;3.97;;
37791;SDS011;29527;55.766;37.570;2022-11-04T05:02:31;6.10;;;3.25;;
37791;SDS011;29527;55.766;37.570;2022-11-04T05:04:56;5.40;;;3.42;;
37791;SDS011;29527;55.766;37.570;2022-11-04T05:07:23;6.50;;;3.67;;
37791;SDS011;29527;55.766;37.570;2022-11-04T05:09:49;7.82;;;4.03;;
37791;SDS011;29527;55.766;37.570;2022-11-04T05:12:15;8.07;;;4.35;;
37791;SDS011;29527;55.766;37.570;2022-11-04T05:14:40;10.05;;;4.63;;
37791;SDS011;29527;55.766;37.570;2022-11-04T05:17:06;8.90;;;4.50;;
37791;SDS011;29527;55.766;37.570;2022-11-04T05:19:31;6.00;;;4.20;;
37791;SDS011;29527;55.766;37.570;2022-11-04T05:21:57;6.53;;;4.20;;
37791;SDS011;29527;55.766;37.570;2022-11-04T05:24:22;9.88;;;4.45;;
37791;SDS011;29527;55.766;37.570;2022-11-04T05:26:47;10.52;;;5.00;;
37791;SDS011;29527;55.766;37.570;2022-11-04T05:29:13;7.63;;;4.55;;
37791;SDS011;29527;55.766;37.570;2022-11-04T05:31:38;10.45;;;4.50;;
37791;SDS011;29527;55.766;37.570;2022-11-04T05:34:04;10.00;;;4.40;;
37791;SDS011;29527;55.766;37.570;2022-11-04T05:36:30;9.20;;;4.18;;
37791;SDS011;29527;55.766;37.570;2022-11-04T05:38:57;10.52;;;5.25;;
37791;SDS011;29527;55.766;37.570;2022-11-04T05:41:23;9.15;;;5.40;;
37791;SDS011;29527;55.766;37.570;2022-11-04T05:43:52;10.32;;;5.38;;
37791;SDS011;29527;55.766;37.570;2022-11-04T05:46:18;9.98;;;5.10;;
37791;SDS011;29527;55.766;37.570;2022-11-04T05:48:43;8.23;;;4.82;;
37791;SDS011;29527;55.766;37.570;2022-11-04T05:51:11;8.40;;;5.10;;
37791;SDS011;29527;55.766;37.570;2022-11-04T05:53:41;9.68;;;5.85;;
37791;SDS011;29527;55.766;37.570;2022-11-04T05:56:07;7.95;;;5.00;;
37791;SDS011;29527;55.766;37.570;2022-11-04T05:58:32;9.07;;;4.95;;
37791;SDS011;29527;55.766;37.570;2022-11-04T06:03:53;8.50;;;4.95;;
37791;SDS011;29527;55.766;37.570;2022-11-04T06:06:20;10.13;;;5.00;;
37791;SDS011;29527;55.766;37.570;2022-11-04T06:08:48;8.98;;;5.38;;
37791;SDS011;29527;55.766;37.570;2022-11-04T06:11:14;9.32;;;5.72;;
37791;SDS011;29527;55.766;37.570;2022-11-04T06:13:39;8.35;;;5.10;;
37791;SDS011;29527;55.766;37.570;2022-11-04T06:16:05;9.85;;;6.38;;
37791;SDS011;29527;55.766;37.570;2022-11-04T06:18:30;9.45;;;5.40;;
37791;SDS011;29527;55.766;37.570;2022-11-04T06:23:40;8.95;;;5.30;;
37791;SDS011;29527;55.766;37.570;2022-11-04T06:26:06;9.15;;;5.50;;
37791;SDS011;29527;55.766;37.570;2022-11-04T06:28:32;14.02;;;5.82;;
37791;SDS011;29527;55.766;37.570;2022-11-04T06:30:59;9.73;;;6.00;;
37791;SDS011;29527;55.766;37.570;2022-11-04T06:33:26;8.95;;;5.55;;
37791;SDS011;29527;55.766;37.570;2022-11-04T06:35:55;14.18;;;5.55;;
37791;SDS011;29527;55.766;37.570;2022-11-04T06:38:25;10.88;;;5.47;;
37791;SDS011;29527;55.766;37.570;2022-11-04T06:40:53;12.50;;;6.60;;
37791;SDS011;29527;55.766;37.570;2022-11-04T06:43:18;10.93;;;6.15;;
37791;SDS011;29527;55.766;37.570;2022-11-04T06:45:51;15.50;;;6.95;;
37791;SDS011;29527;55.766;37.570;2022-11-04T06:48:17;14.07;;;6.28;;
37791;SDS011;29527;55.766;37.570;2022-11-04T06:50:42;15.00;;;6.10;;
37791;SDS011;29527;55.766;37.570;2022-11-04T06:53:08;20.98;;;6.78;;
37791;SDS011;29527;55.766;37.570;2022-11-04T06:55:33;10.13;;;5.82;;
37791;SDS011;29527;55.766;37.570;2022-11-04T06:57:58;10.68;;;5.85;;
37791;SDS011;29527;55.766;37.570;2022-11-04T07:00:24;12.50;;;6.03;;
37791;SDS011;29527;55.766;37.570;2022-11-04T07:02:49;10.98;;;5.78;;
37791;SDS011;29527;55.766;37.570;2022-11-04T07:05:15;15.23;;;5.32;;
37791;SDS011;29527;55.766;37.570;2022-11-04T07:07:41;13.48;;;5.60;;
37791;SDS011;29527;55.766;37.570;2022-11-04T07:10:07;9.25;;;5.43;;
37791;SDS011;29527;55.766;37.570;2022-11-04T07:12:33;10.15;;;5.10;;
37791;SDS011;29527;55.766;37.570;2022-11-04T07:14:58;15.98;;;5.07;;
37791;SDS011;29527;55.766;37.570;2022-11-04T07:17:24;9.35;;;5.03;;
37791;SDS011;29527;55.766;37.570;2022-11-04T07:19:49;10.10;;;4.88;;
37791;SDS011;29527;55.766;37.570;2022-11-04T07:22:15;12.57;;;5.28;;
37791;SDS011;29527;55.766;37.570;2022-11-04T07:24:40;13.98;;;5.03;;
37791;SDS011;29527;55.766;37.570;2022-11-04T07:27:05;10.23;;;4.38;;
37791;SDS011;29527;55.766;37.570;2022-11-04T07:29:32;10.20;;;4.47;;
37791;SDS011;29527;55.766;37.570;2022-11-04T07:31:57;10.55;;;4.53;;
37791;SDS011;29527;55.766;37.570;2022-11-04T07:34:23;9.85;;;4.90;;
37791;SDS011;29527;55.766;37.570;2022-11-04T07:36:48;9.65;;;5.10;;
37791;SDS011;29527;55.766;37.570;2022-11-04T07:39:14;13.50;;;4.80;;
37791;SDS011;29527;55.766;37.570;2022-11-04T07:41:40;16.98;;;5.10;;
37791;SDS011;29527;55.766;37.570;2022-11-04T07:44:05;12.23;;;5.43;;
37791;SDS011;29527;55.766;37.570;2022-11-04T07:46:31;10.85;;;4.45;;
37791;SDS011;29527;55.766;37.570;2022-11-04T07:48:57;12.13;;;5.25;;
37791;SDS011;29527;55.766;37.570;2022-11-04T07:51:23;15.50;;;5.20;;
37791;SDS011;29527;55.766;37.570;2022-11-04T07:53:50;11.95;;;4.43;;
37791;SDS011;29527;55.766;37.570;2022-11-04T07:56:15;13.43;;;5.13;;
37791;SDS011;29527;55.766;37.570;2022-11-04T07:58:43;16.55;;;5.30;;
37791;SDS011;29527;55.766;37.570;2022-11-04T08:01:10;18.08;;;5.90;;
37791;SDS011;29527;55.766;37.570;2022-11-04T08:03:38;14.05;;;5.55;;
37791;SDS011;29527;55.766;37.570;2022-11-04T08:06:04;13.75;;;5.00;;
37791;SDS011;29527;55.766;37.570;2022-11-04T08:08:31;10.20;;;5.03;;
37791;SDS011;29527;55.766;37.570;2022-11-04T08:10:58;12.98;;;5.20;;
37791;SDS011;29527;55.766;37.570;2022-11-04T08:13:30;13.75;;;5.57;;
37791;SDS011;29527;55.766;37.570;2022-11-04T08:16:01;11.30;;;6.13;;
37791;SDS011;29527;55.766;37.570;2022-11-04T08:18:31;13.60;;;6.63;;
37791;SDS011;29527;55.766;37.570;2022-11-04T08:20:57;18.55;;;7.15;;
37791;SDS011;29527;55.766;37.570;2022-11-04T08:23:23;11.27;;;6.20;;
37791;SDS011;29527;55.766;37.570;2022-11-04T08:25:49;9.95;;;5.95;;
37791;SDS011;29527;55.766;37.570;2022-11-04T08:28:14;11.00;;;5.65;;
37791;SDS011;29527;55.766;37.570;2022-11-04T08:33:46;10.75;;;5.43;;
37791;SDS011;29527;55.766;37.570;2022-11-04T08:36:45;11.07;;;5.93;;
37791;SDS011;29527;55.766;37.570;2022-11-04T08:39:05;10.55;;;5.38;;
37791;SDS011;29527;55.766;37.570;2022-11-04T08:41:31;11.68;;;6.00;;
37791;SDS011;29527;55.766;37.570;2022-11-04T08:43:58;14.25;;;5.32;;
37791;SDS011;29527;55.766;37.570;2022-11-04T08:46:28;9.98;;;5.13;;
37791;SDS011;29527;55.766;37.570;2022-11-04T08:48:57;11.32;;;4.97;;
37791;SDS011;29527;55.766;37.570;2022-11-04T08:51:23;11.60;;;5.18;;
37791;SDS011;29527;55.766;37.570;2022-11-04T08:53:50;13.18;;;5.57;;
37791;SDS011;29527;55.766;37.570;2022-11-04T08:56:17;10.75;;;5.45;;
37791;SDS011;29527;55.766;37.570;2022-11-04T08:58:47;14.07;;;5.93;;
37791;SDS011;29527;55.766;37.570;2022-11-04T09:01:13;13.82;;;6.07;;
37791;SDS011;29527;55.766;37.570;2022-11-04T09:03:39;16.58;;;6.38;;
37791;SDS011;29527;55.766;37.570;2022-11-04T09:06:06;10.75;;;6.32;;
37791;SDS011;29527;55.766;37.570;2022-11-04T09:08:33;15.32;;;6.32;;
37791;SDS011;29527;55.766;37.570;2022-11-04T09:10:58;10.73;;;6.00;;
37791;SDS011;29527;55.766;37.570;2022-11-04T09:13:25;18.27;;;6.55;;
37791;SDS011;29527;55.766;37.570;2022-11-04T09:15:51;12.27;;;6.30;;
37791;SDS011;29527;55.766;37.570;2022-11-04T09:18:17;13.68;;;7.55;;
37791;SDS011;29527;55.766;37.570;2022-11-04T09:20:43;14.70;;;7.43;;
37791;SDS011;29527;55.766;37.570;2022-11-04T09:23:08;17.60;;;7.90;;
37791;SDS011;29527;55.766;37.570;2022-11-04T09:25:34;17.48;;;7.88;;
37791;SDS011;29527;55.766;37.570;2022-11-04T09:28:00;11.63;;;6.70;;
37791;SDS011;29527;55.766;37.570;2022-11-04T09:30:26;15.18;;;7.20;;
37791;SDS011;29527;55.766;37.570;2022-11-04T09:32:51;15.50;;;6.40;;
37791;SDS011;29527;55.766;37.570;2022-11-04T09:35:17;13.18;;;6.72;;
37791;SDS011;29527;55.766;37.570;2022-11-04T09:37:43;10.55;;;6.68;;
37791;SDS011;29527;55.766;37.570;2022-11-04T09:40:18;12.80;;;6.88;;
37791;SDS011;29527;55.766;37.570;2022-11-04T09:45:17;18.33;;;8.45;;
37791;SDS011;29527;55.766;37.570;2022-11-04T09:47:47;12.68;;;6.88;;
37791;SDS011;29527;55.766;37.570;2022-11-04T09:50:17;11.77;;;7.10;;
37791;SDS011;29527;55.766;37.570;2022-11-04T09:55:40;12.93;;;6.97;;
37791;SDS011;29527;55.766;37.570;2022-11-04T09:58:13;11.88;;;6.50;;
37791;SDS011;29527;55.766;37.570;2022-11-04T10:00:39;18.40;;;9.50;;
37791;SDS011;29527;55.766;37.570;2022-11-04T10:06:23;13.27;;;7.60;;
37791;SDS011;29527;55.766;37.570;2022-11-04T10:09:28;10.75;;;6.95;;
37791;SDS011;29527;55.766;37.570;2022-11-04T10:17:13;13.85;;;7.78;;
37791;SDS011;29527;55.766;37.570;2022-11-04T10:26:00;14.15;;;8.40;;
37791;SDS011;29527;55.766;37.570;2022-11-04T10:28:32;12.88;;;8.75;;
37791;SDS011;29527;55.766;37.570;2022-11-04T10:31:03;15.10;;;8.75;;
37791;SDS011;29527;55.766;37.570;2022-11-04T10:33:33;17.60;;;9.40;;
37791;SDS011;29527;55.766;37.570;2022-11-04T10:36:04;17.58;;;9.45;;
37791;SDS011;29527;55.766;37.570;2022-11-04T10:38:33;19.05;;;10.50;;
37791;SDS011;29527;55.766;37.570;2022-11-04T10:40:59;18.08;;;9.82;;
37791;SDS011;29527;55.766;37.570;2022-11-04T10:43:33;18.42;;;9.63;;
37791;SDS011;29527;55.766;37.570;2022-11-04T10:49:15;17.83;;;10.30;;
37791;SDS011;29527;55.766;37.570;2022-11-04T10:51:24;21.25;;;9.95;;
37791;SDS011;29527;55.766;37.570;2022-11-04T10:53:52;19.27;;;9.27;;
37791;SDS011;29527;55.766;37.570;2022-11-04T10:58:53;17.63;;;9.90;;
37791;SDS011;29527;55.766;37.570;2022-11-04T11:01:32;19.65;;;10.50;;
37791;SDS011;29527;55.766;37.570;2022-11-04T11:03:59;14.55;;;8.93;;
37791;SDS011;29527;55.766;37.570;2022-11-04T11:06:29;15.20;;;9.88;;
37791;SDS011;29527;55.766;37.570;2022-11-04T11:08:57;16.42;;;9.73;;
37791;SDS011;29527;55.766;37.570;2022-11-04T11:11:41;23.42;;;10.43;;
37791;SDS011;29527;55.766;37.570;2022-11-04T11:14:44;16.65;;;9.45;;
37791;SDS011;29527;55.766;37.570;2022-11-04T11:27:58;20.55;;;11.68;;
37791;SDS011;29527;55.766;37.570;2022-11-04T11:32:56;30.08;;;14.82;;
37791;SDS011;29527;55.766;37.570;2022-11-04T11:35:33;27.73;;;15.23;;
37791;SDS011;29527;55.766;37.570;2022-11-04T11:38:13;24.48;;;13.65;;
37791;SDS011;29527;55.766;37.570;2022-11-04T11:40:43;22.58;;;12.60;;
37791;SDS011;29527;55.766;37.570;2022-11-04T11:43:20;21.42;;;11.77;;
37791;SDS011;29527;55.766;37.570;2022-11-04T11:45:49;22.02;;;11.18;;
37791;SDS011;29527;55.766;37.570;2022-11-04T11:48:49;21.60;;;10.48;;
37791;SDS011;29527;55.766;37.570;2022-11-04T11:51:11;18.85;;;10.65;;
37791;SDS011;29527;55.766;37.570;2022-11-04T11:53:38;24.52;;;10.65;;
37791;SDS011;29527;55.766;37.570;2022-11-04T11:59:03;23.83;;;10.35;;
37791;SDS011;29527;55.766;37.570;2022-11-04T12:01:41;17.90;;;9.50;;
37791;SDS011;29527;55.766;37.570;2022-11-04T12:04:14;18.80;;;10.55;;
37791;SDS011;29527;55.766;37.570;2022-11-04T12:09:35;21.75;;;10.50;;
37791;SDS011;29527;55.766;37.570;2022-11-04T12:18:29;17.40;;;9.05;;
37791;SDS011;29527;55.766;37.570;2022-11-04T12:21:14;16.88;;;9.07;;
37791;SDS011;29527;55.766;37.570;2022-11-04T12:29:00;19.10;;;9.80;;
37791;SDS011;29527;55.766;37.570;2022-11-04T12:34:49;15.90;;;8.57;;
37791;SDS011;29527;55.766;37.570;2022-11-04T12:47:42;19.27;;;9.17;;
37791;SDS011;29527;55.766;37.570;2022-11-04T13:00:53;18.02;;;9.00;;
37791;SDS011;29527;55.766;37.570;2022-11-04T13:03:54;15.90;;;8.60;;
37791;SDS011;29527;55.766;37.570;2022-11-04T13:06:26;15.55;;;8.75;;
37791;SDS011;29527;55.766;37.570;2022-11-04T13:08:59;18.30;;;9.43;;
37791;SDS011;29527;55.766;37.570;2022-11-04T13:13:59;19.55;;;10.38;;
37791;SDS011;29527;55.766;37.570;2022-11-04T13:16:37;18.23;;;10.43;;
37791;SDS011;29527;55.766;37.570;2022-11-04T13:19:09;18.40;;;10.23;;
37791;SDS011;29527;55.766;37.570;2022-11-04T13:21:40;21.77;;;10.68;;
37791;SDS011;29527;55.766;37.570;2022-11-04T13:24:19;20.10;;;10.43;;
37791;SDS011;29527;55.766;37.570;2022-11-04T13:26:54;21.73;;;10.40;;
37791;SDS011;29527;55.766;37.570;2022-11-04T13:29:24;19.13;;;10.48;;
37791;SDS011;29527;55.766;37.570;2022-11-04T13:34:36;17.25;;;10.05;;
37791;SDS011;29527;55.766;37.570;2022-11-04T13:39:50;16.60;;;8.80;;
37791;SDS011;29527;55.766;37.570;2022-11-04T13:44:53;19.75;;;9.30;;
37791;SDS011;29527;55.766;37.570;2022-11-04T13:47:30;19.38;;;10.15;;
37791;SDS011;29527;55.766;37.570;2022-11-04T13:50:00;17.27;;;9.27;;
37791;SDS011;29527;55.766;37.570;2022-11-04T13:52:30;16.23;;;8.70;;
37791;SDS011;29527;55.766;37.570;2022-11-04T13:55:01;18.60;;;9.13;;
37791;SDS011;29527;55.766;37.570;2022-11-04T13:57:32;27.58;;;9.30;;
37791;SDS011;29527;55.766;37.570;2022-11-04T14:00:21;15.00;;;8.38;;
37791;SDS011;29527;55.766;37.570;2022-11-04T14:02:51;16.65;;;8.88;;
37791;SDS011;29527;55.766;37.570;2022-11-04T14:16:36;12.95;;;8.02;;
37791;SDS011;29527;55.766;37.570;2022-11-04T14:18:48;16.55;;;7.80;;
37791;SDS011;29527;55.766;37.570;2022-11-04T14:21:16;15.05;;;7.93;;
37791;SDS011;29527;55.766;37.570;2022-11-04T14:23:53;15.43;;;8.55;;
37791;SDS011;29527;55.766;37.570;2022-11-04T14:26:25;14.15;;;7.70;;
37791;SDS011;29527;55.766;37.570;2022-11-04T14:32:00;20.52;;;8.82;;
37791;SDS011;29527;55.766;37.570;2022-11-04T14:34:36;19.17;;;8.85;;
37791;SDS011;29527;55.766;37.570;2022-11-04T14:39:39;16.95;;;8.30;;
37791;SDS011;29527;55.766;37.570;2022-11-04T14:42:07;15.55;;;7.97;;
37791;SDS011;29527;55.766;37.570;2022-11-04T14:47:25;13.13;;;7.43;;
37791;SDS011;29527;55.766;37.570;2022-11-04T14:52:29;13.15;;;6.80;;
37791;SDS011;29527;55.766;37.570;2022-11-04T14:55:32;13.68;;;7.47;;
37791;SDS011;29527;55.766;37.570;2022-11-04T14:57:55;12.70;;;7.90;;
37791;SDS011;29527;55.766;37.570;2022-11-04T15:05:49;14.38;;;7.82;;
37791;SDS011;29527;55.766;37.570;2022-11-04T15:13:37;16.00;;;7.57;;
37791;SDS011;29527;55.766;37.570;2022-11-04T15:16:18;13.40;;;7.32;;
37791;SDS011;29527;55.766;37.570;2022-11-04T15:18:51;14.90;;;8.10;;
37791;SDS011;29527;55.766;37.570;2022-11-04T15:21:19;19.63;;;8.07;;
37791;SDS011;29527;55.766;37.570;2022-11-04T15:23:46;13.88;;;7.53;;
37791;SDS011;29527;55.766;37.570;2022-11-04T15:26:27;13.90;;;7.82;;
37791;SDS011;29527;55.766;37.570;2022-11-04T15:28:54;14.02;;;8.32;;
37791;SDS011;29527;55.766;37.570;2022-11-04T15:31:22;13.73;;;7.80;;
37791;SDS011;29527;55.766;37.570;2022-11-04T15:33:53;21.52;;;8.02;;
37791;SDS011;29527;55.766;37.570;2022-11-04T15:36:25;13.35;;;8.02;;
37791;SDS011;29527;55.766;37.570;2022-11-04T15:38:58;15.45;;;8.02;;
37791;SDS011;29527;55.766;37.570;2022-11-04T15:41:29;13.80;;;8.02;;
37791;SDS011;29527;55.766;37.570;2022-11-04T15:44:17;14.18;;;7.57;;
37791;SDS011;29527;55.766;37.570;2022-11-04T15:46:55;14.20;;;8.25;;
37791;SDS011;29527;55.766;37.570;2022-11-04T15:49:23;12.98;;;7.60;;
37791;SDS011;29527;55.766;37.570;2022-11-04T15:52:03;12.57;;;7.55;;
37791;SDS011;29527;55.766;37.570;2022-11-04T15:54:34;14.20;;;7.90;;
37791;SDS011;29527;55.766;37.570;2022-11-04T15:57:10;13.00;;;7.03;;
37791;SDS011;29527;55.766;37.570;2022-11-04T15:59:37;11.80;;;7.45;;
37791;SDS011;29527;55.766;37.570;2022-11-04T16:02:03;10.13;;;6.95;;
37791;SDS011;29527;55.766;37.570;2022-11-04T16:04:44;11.05;;;7.00;;
37791;SDS011;29527;55.766;37.570;2022-11-04T16:09:45;10.48;;;6.57;;
37791;SDS011;29527;55.766;37.570;2022-11-04T16:12:14;12.05;;;6.60;;
37791;SDS011;29527;55.766;37.570;2022-11-04T16:14:50;11.88;;;6.25;;
37791;SDS011;29527;55.766;37.570;2022-11-04T16:20:01;8.73;;;5.70;;
37791;SDS011;29527;55.766;37.570;2022-11-04T16:22:33;12.93;;;5.93;;
37791;SDS011;29527;55.766;37.570;2022-11-04T16:25:05;10.30;;;6.03;;
37791;SDS011;29527;55.766;37.570;2022-11-04T16:27:35;9.00;;;6.15;;
37791;SDS011;29527;55.766;37.570;2022-11-04T16:30:08;10.60;;;6.28;;
37791;SDS011;29527;55.766;37.570;2022-11-04T16:32:42;8.52;;;5.20;;
37791;SDS011;29527;55.766;37.570;2022-11-04T16:35:16;9.90;;;5.90;;
37791;SDS011;29527;55.766;37.570;2022-11-04T16:37:46;6.28;;;4.57;;
37791;SDS011;29527;55.766;37.570;2022-11-04T16:40:13;8.15;;;5.03;;
37791;SDS011;29527;55.766;37.570;2022-11-04T16:42:40;6.88;;;4.90;;
37791;SDS011;29527;55.766;37.570;2022-11-04T16:45:06;7.00;;;4.78;;
37791;SDS011;29527;55.766;37.570;2022-11-04T16:47:41;6.43;;;4.72;;
37791;SDS011;29527;55.766;37.570;2022-11-04T16:50:11;10.77;;;5.40;;
37791;SDS011;29527;55.766;37.570;2022-11-04T16:52:39;6.35;;;4.10;;
37791;SDS011;29527;55.766;37.570;2022-11-04T16:55:04;8.23;;;4.85;;
37791;SDS011;29527;55.766;37.570;2022-11-04T16:57:30;7.85;;;4.90;;
37791;SDS011;29527;55.766;37.570;2022-11-04T16:59:56;8.23;;;4.40;;
37791;SDS011;29527;55.766;37.570;2022-11-04T17:02:26;6.47;;;4.18;;
37791;SDS011;29527;55.766;37.570;2022-11-04T17:04:54;6.95;;;4.47;;
37791;SDS011;29527;55.766;37.570;2022-11-04T17:07:20;8.15;;;4.93;;
37791;SDS011;29527;55.766;37.570;2022-11-04T17:09:46;7.63;;;4.68;;
37791;SDS011;29527;55.766;37.570;2022-11-04T17:12:11;8.48;;;4.60;;
37791;SDS011;29527;55.766;37.570;2022-11-04T17:14:37;7.35;;;4.40;;
37791;SDS011;29527;55.766;37.570;2022-11-04T17:17:02;8.52;;;4.10;;
37791;SDS011;29527;55.766;37.570;2022-11-04T17:19:28;6.75;;;4.20;;
37791;SDS011;29527;55.766;37.570;2022-11-04T17:21:54;8.93;;;4.80;;
37791;SDS011;29527;55.766;37.570;2022-11-04T17:24:20;12.07;;;4.78;;
37791;SDS011;29527;55.766;37.570;2022-11-04T17:26:46;8.38;;;4.00;;
37791;SDS011;29527;55.766;37.570;2022-11-04T17:29:11;7.57;;;4.10;;
37791;SDS011;29527;55.766;37.570;2022-11-04T17:31:36;9.00;;;4.75;;
37791;SDS011;29527;55.766;37.570;2022-11-04T17:34:02;6.10;;;4.20;;
37791;SDS011;29527;55.766;37.570;2022-11-04T17:36:28;12.85;;;4.82;;
37791;SDS011;29527;55.766;37.570;2022-11-04T17:38:54;12.57;;;4.50;;